sensor_id;sensor_type;location;lat;lon;timestamp;P1;durP1;ratioP1;P2;durP2;ratioP2
59127;SDS011;44912;52.754;5.994;2023-12-20T00:01:20;7.75;;;1.40;;
59127;SDS011;44912;52.754;5.994;2023-12-20T00:03:46;12.32;;;1.65;;
59127;SDS011;44912;52.754;5.994;2023-12-20T00:06:12;11.45;;;1.75;;
59127;SDS011;44912;52.754;5.994;2023-12-20T00:08:38;11.25;;;1.90;;
59127;SDS011;44912;52.754;5.994;2023-12-20T00:11:03;15.32;;;2.28;;
59127;SDS011;44912;52.754;5.994;2023-12-20T00:13:29;15.00;;;1.98;;
59127;SDS011;44912;52.754;5.994;2023-12-20T00:15:54;15.70;;;1.85;;
59127;SDS011;44912;52.754;5.994;2023-12-20T00:18:20;11.45;;;1.90;;
59127;SDS011;44912;52.754;5.994;2023-12-20T00:20:46;14.55;;;2.70;;
59127;SDS011;44912;52.754;5.994;2023-12-20T00:23:11;16.42;;;2.30;;
59127;SDS011;44912;52.754;5.994;2023-12-20T00:25:37;14.80;;;2.20;;
59127;SDS011;44912;52.754;5.994;2023-12-20T00:28:02;16.38;;;2.17;;
59127;SDS011;44912;52.754;5.994;2023-12-20T00:30:28;15.00;;;2.08;;
59127;SDS011;44912;52.754;5.994;2023-12-20T00:32:54;14.77;;;2.42;;
59127;SDS011;44912;52.754;5.994;2023-12-20T00:35:21;16.70;;;2.30;;
59127;SDS011;44912;52.754;5.994;2023-12-20T00:37:46;20.00;;;2.20;;
59127;SDS011;44912;52.754;5.994;2023-12-20T00:40:12;10.77;;;2.00;;
59127;SDS011;44912;52.754;5.994;2023-12-20T00:42:37;13.57;;;2.35;;
59127;SDS011;44912;52.754;5.994;2023-12-20T00:45:03;16.98;;;2.60;;
59127;SDS011;44912;52.754;5.994;2023-12-20T00:47:30;13.68;;;2.03;;
59127;SDS011;44912;52.754;5.994;2023-12-20T00:49:56;15.45;;;2.63;;
59127;SDS011;44912;52.754;5.994;2023-12-20T00:52:22;17.75;;;2.97;;
59127;SDS011;44912;52.754;5.994;2023-12-20T00:54:48;11.85;;;2.25;;
59127;SDS011;44912;52.754;5.994;2023-12-20T00:57:14;17.05;;;2.05;;
59127;SDS011;44912;52.754;5.994;2023-12-20T00:59:40;11.65;;;2.33;;
59127;SDS011;44912;52.754;5.994;2023-12-20T01:02:05;15.90;;;2.60;;
59127;SDS011;44912;52.754;5.994;2023-12-20T01:04:31;18.73;;;2.80;;
59127;SDS011;44912;52.754;5.994;2023-12-20T01:06:57;16.88;;;2.25;;
59127;SDS011;44912;52.754;5.994;2023-12-20T01:09:23;20.45;;;3.22;;
59127;SDS011;44912;52.754;5.994;2023-12-20T01:11:51;21.67;;;2.85;;
59127;SDS011;44912;52.754;5.994;2023-12-20T01:14:17;16.92;;;2.22;;
59127;SDS011;44912;52.754;5.994;2023-12-20T01:16:42;11.23;;;2.20;;
59127;SDS011;44912;52.754;5.994;2023-12-20T01:19:08;16.42;;;2.50;;
59127;SDS011;44912;52.754;5.994;2023-12-20T01:21:34;14.23;;;2.17;;
59127;SDS011;44912;52.754;5.994;2023-12-20T01:23:59;15.93;;;3.03;;
59127;SDS011;44912;52.754;5.994;2023-12-20T01:26:25;15.10;;;2.50;;
59127;SDS011;44912;52.754;5.994;2023-12-20T01:28:50;16.10;;;2.88;;
59127;SDS011;44912;52.754;5.994;2023-12-20T01:31:16;17.50;;;2.80;;
59127;SDS011;44912;52.754;5.994;2023-12-20T01:33:41;17.40;;;2.60;;
59127;SDS011;44912;52.754;5.994;2023-12-20T01:36:07;17.15;;;2.47;;
59127;SDS011;44912;52.754;5.994;2023-12-20T01:38:33;21.23;;;3.00;;
59127;SDS011;44912;52.754;5.994;2023-12-20T01:40:59;13.85;;;2.85;;
59127;SDS011;44912;52.754;5.994;2023-12-20T01:43:25;17.50;;;2.65;;
59127;SDS011;44912;52.754;5.994;2023-12-20T01:45:50;14.50;;;2.63;;
59127;SDS011;44912;52.754;5.994;2023-12-20T01:48:17;18.33;;;3.00;;
59127;SDS011;44912;52.754;5.994;2023-12-20T01:50:44;17.95;;;2.95;;
59127;SDS011;44912;52.754;5.994;2023-12-20T01:53:11;15.27;;;2.80;;
59127;SDS011;44912;52.754;5.994;2023-12-20T01:55:41;15.30;;;2.70;;
59127;SDS011;44912;52.754;5.994;2023-12-20T01:58:07;14.35;;;2.20;;
59127;SDS011;44912;52.754;5.994;2023-12-20T02:00:35;12.57;;;2.50;;
59127;SDS011;44912;52.754;5.994;2023-12-20T02:03:02;15.10;;;2.80;;
59127;SDS011;44912;52.754;5.994;2023-12-20T02:05:31;16.33;;;2.08;;
59127;SDS011;44912;52.754;5.994;2023-12-20T02:07:58;18.15;;;2.78;;
59127;SDS011;44912;52.754;5.994;2023-12-20T02:10:24;14.60;;;2.60;;
59127;SDS011;44912;52.754;5.994;2023-12-20T02:12:50;19.35;;;3.42;;
59127;SDS011;44912;52.754;5.994;2023-12-20T02:15:16;19.88;;;3.78;;
59127;SDS011;44912;52.754;5.994;2023-12-20T02:17:42;22.45;;;3.20;;
59127;SDS011;44912;52.754;5.994;2023-12-20T02:20:08;16.45;;;3.10;;
59127;SDS011;44912;52.754;5.994;2023-12-20T02:22:34;18.02;;;3.58;;
59127;SDS011;44912;52.754;5.994;2023-12-20T02:25:00;18.20;;;2.95;;
59127;SDS011;44912;52.754;5.994;2023-12-20T02:27:26;23.30;;;3.85;;
59127;SDS011;44912;52.754;5.994;2023-12-20T02:29:53;22.73;;;3.10;;
59127;SDS011;44912;52.754;5.994;2023-12-20T02:32:18;27.98;;;3.80;;
59127;SDS011;44912;52.754;5.994;2023-12-20T02:34:46;19.80;;;3.53;;
59127;SDS011;44912;52.754;5.994;2023-12-20T02:37:12;22.92;;;4.00;;
59127;SDS011;44912;52.754;5.994;2023-12-20T02:39:38;23.88;;;3.67;;
59127;SDS011;44912;52.754;5.994;2023-12-20T02:42:03;25.15;;;3.40;;
59127;SDS011;44912;52.754;5.994;2023-12-20T02:44:29;20.70;;;3.67;;
59127;SDS011;44912;52.754;5.994;2023-12-20T02:46:54;21.00;;;3.55;;
59127;SDS011;44912;52.754;5.994;2023-12-20T02:49:20;24.90;;;3.72;;
59127;SDS011;44912;52.754;5.994;2023-12-20T02:51:46;21.23;;;3.72;;
59127;SDS011;44912;52.754;5.994;2023-12-20T02:54:12;22.05;;;3.22;;
59127;SDS011;44912;52.754;5.994;2023-12-20T02:56:37;22.40;;;3.88;;
59127;SDS011;44912;52.754;5.994;2023-12-20T02:59:03;22.13;;;4.25;;
59127;SDS011;44912;52.754;5.994;2023-12-20T03:01:31;14.32;;;3.08;;
59127;SDS011;44912;52.754;5.994;2023-12-20T03:03:56;19.92;;;3.55;;
59127;SDS011;44912;52.754;5.994;2023-12-20T03:06:22;18.58;;;3.50;;
59127;SDS011;44912;52.754;5.994;2023-12-20T03:08:48;22.08;;;4.07;;
59127;SDS011;44912;52.754;5.994;2023-12-20T03:11:14;17.63;;;3.50;;
59127;SDS011;44912;52.754;5.994;2023-12-20T03:13:39;20.77;;;4.38;;
59127;SDS011;44912;52.754;5.994;2023-12-20T03:16:11;25.73;;;4.00;;
59127;SDS011;44912;52.754;5.994;2023-12-20T03:18:38;23.15;;;3.90;;
59127;SDS011;44912;52.754;5.994;2023-12-20T03:21:04;25.20;;;3.65;;
59127;SDS011;44912;52.754;5.994;2023-12-20T03:23:30;23.73;;;4.47;;
59127;SDS011;44912;52.754;5.994;2023-12-20T03:25:57;20.48;;;3.95;;
59127;SDS011;44912;52.754;5.994;2023-12-20T03:28:23;19.73;;;3.92;;
59127;SDS011;44912;52.754;5.994;2023-12-20T03:30:49;21.30;;;4.15;;
59127;SDS011;44912;52.754;5.994;2023-12-20T03:33:15;19.80;;;4.00;;
59127;SDS011;44912;52.754;5.994;2023-12-20T03:35:40;18.23;;;3.80;;
59127;SDS011;44912;52.754;5.994;2023-12-20T03:38:06;22.63;;;3.85;;
59127;SDS011;44912;52.754;5.994;2023-12-20T03:40:32;21.30;;;3.58;;
59127;SDS011;44912;52.754;5.994;2023-12-20T03:42:58;19.05;;;3.58;;
59127;SDS011;44912;52.754;5.994;2023-12-20T03:45:23;21.40;;;3.50;;
59127;SDS011;44912;52.754;5.994;2023-12-20T03:47:49;19.70;;;3.67;;
59127;SDS011;44912;52.754;5.994;2023-12-20T03:50:15;25.52;;;3.80;;
59127;SDS011;44912;52.754;5.994;2023-12-20T03:52:40;26.20;;;4.40;;
59127;SDS011;44912;52.754;5.994;2023-12-20T03:55:06;26.02;;;3.80;;
59127;SDS011;44912;52.754;5.994;2023-12-20T03:57:32;19.80;;;4.25;;
59127;SDS011;44912;52.754;5.994;2023-12-20T03:59:57;19.30;;;3.67;;
59127;SDS011;44912;52.754;5.994;2023-12-20T04:02:23;19.70;;;3.38;;
59127;SDS011;44912;52.754;5.994;2023-12-20T04:04:49;17.42;;;3.83;;
59127;SDS011;44912;52.754;5.994;2023-12-20T04:07:14;25.15;;;3.80;;
59127;SDS011;44912;52.754;5.994;2023-12-20T04:09:40;20.35;;;4.07;;
59127;SDS011;44912;52.754;5.994;2023-12-20T04:12:06;26.25;;;4.57;;
59127;SDS011;44912;52.754;5.994;2023-12-20T04:14:32;22.58;;;3.15;;
59127;SDS011;44912;52.754;5.994;2023-12-20T04:16:57;20.92;;;3.90;;
59127;SDS011;44912;52.754;5.994;2023-12-20T04:19:23;19.42;;;3.53;;
59127;SDS011;44912;52.754;5.994;2023-12-20T04:21:49;21.90;;;3.72;;
59127;SDS011;44912;52.754;5.994;2023-12-20T04:24:14;22.92;;;4.05;;
59127;SDS011;44912;52.754;5.994;2023-12-20T04:26:40;21.67;;;3.58;;
59127;SDS011;44912;52.754;5.994;2023-12-20T04:29:06;24.80;;;3.90;;
59127;SDS011;44912;52.754;5.994;2023-12-20T04:31:31;22.60;;;4.47;;
59127;SDS011;44912;52.754;5.994;2023-12-20T04:33:57;30.10;;;4.45;;
59127;SDS011;44912;52.754;5.994;2023-12-20T04:36:22;22.70;;;4.28;;
59127;SDS011;44912;52.754;5.994;2023-12-20T04:38:50;19.95;;;3.65;;
59127;SDS011;44912;52.754;5.994;2023-12-20T04:41:15;29.02;;;4.78;;
59127;SDS011;44912;52.754;5.994;2023-12-20T04:43:43;17.52;;;3.22;;
59127;SDS011;44912;52.754;5.994;2023-12-20T04:46:09;23.08;;;3.72;;
59127;SDS011;44912;52.754;5.994;2023-12-20T04:48:35;18.98;;;4.20;;
59127;SDS011;44912;52.754;5.994;2023-12-20T04:51:00;18.67;;;4.28;;
59127;SDS011;44912;52.754;5.994;2023-12-20T04:53:26;22.25;;;3.85;;
59127;SDS011;44912;52.754;5.994;2023-12-20T04:55:52;20.60;;;4.13;;
59127;SDS011;44912;52.754;5.994;2023-12-20T04:58:18;21.45;;;3.90;;
59127;SDS011;44912;52.754;5.994;2023-12-20T05:00:44;26.75;;;3.60;;
59127;SDS011;44912;52.754;5.994;2023-12-20T05:03:09;23.10;;;3.70;;
59127;SDS011;44912;52.754;5.994;2023-12-20T05:05:35;25.40;;;3.40;;
59127;SDS011;44912;52.754;5.994;2023-12-20T05:08:01;25.70;;;4.45;;
59127;SDS011;44912;52.754;5.994;2023-12-20T05:10:26;19.85;;;3.38;;
59127;SDS011;44912;52.754;5.994;2023-12-20T05:12:53;18.48;;;3.75;;
59127;SDS011;44912;52.754;5.994;2023-12-20T05:15:18;22.83;;;3.20;;
59127;SDS011;44912;52.754;5.994;2023-12-20T05:17:44;23.42;;;4.35;;
59127;SDS011;44912;52.754;5.994;2023-12-20T05:20:09;18.67;;;3.05;;
59127;SDS011;44912;52.754;5.994;2023-12-20T05:22:35;21.98;;;4.35;;
59127;SDS011;44912;52.754;5.994;2023-12-20T05:25:01;24.08;;;5.18;;
59127;SDS011;44912;52.754;5.994;2023-12-20T05:27:27;18.77;;;3.58;;
59127;SDS011;44912;52.754;5.994;2023-12-20T05:29:52;17.48;;;3.03;;
59127;SDS011;44912;52.754;5.994;2023-12-20T05:32:18;19.70;;;3.97;;
59127;SDS011;44912;52.754;5.994;2023-12-20T05:34:43;19.90;;;3.88;;
59127;SDS011;44912;52.754;5.994;2023-12-20T05:37:09;23.30;;;4.07;;
59127;SDS011;44912;52.754;5.994;2023-12-20T05:39:35;18.95;;;3.75;;
59127;SDS011;44912;52.754;5.994;2023-12-20T05:42:00;20.45;;;3.10;;
59127;SDS011;44912;52.754;5.994;2023-12-20T05:44:26;19.98;;;4.00;;
59127;SDS011;44912;52.754;5.994;2023-12-20T05:46:51;20.42;;;3.65;;
59127;SDS011;44912;52.754;5.994;2023-12-20T05:49:17;20.83;;;3.47;;
59127;SDS011;44912;52.754;5.994;2023-12-20T05:51:42;18.30;;;2.83;;
59127;SDS011;44912;52.754;5.994;2023-12-20T05:54:09;20.48;;;3.42;;
59127;SDS011;44912;52.754;5.994;2023-12-20T05:56:34;21.50;;;4.15;;
59127;SDS011;44912;52.754;5.994;2023-12-20T05:59:00;19.80;;;3.10;;
59127;SDS011;44912;52.754;5.994;2023-12-20T06:01:26;18.20;;;2.88;;
59127;SDS011;44912;52.754;5.994;2023-12-20T06:03:51;20.92;;;3.65;;
59127;SDS011;44912;52.754;5.994;2023-12-20T06:06:17;17.77;;;2.97;;
59127;SDS011;44912;52.754;5.994;2023-12-20T06:08:43;18.20;;;2.75;;
59127;SDS011;44912;52.754;5.994;2023-12-20T06:11:08;20.02;;;3.85;;
59127;SDS011;44912;52.754;5.994;2023-12-20T06:13:34;23.13;;;3.45;;
59127;SDS011;44912;52.754;5.994;2023-12-20T06:16:00;22.25;;;3.78;;
59127;SDS011;44912;52.754;5.994;2023-12-20T06:18:26;14.55;;;3.25;;
59127;SDS011;44912;52.754;5.994;2023-12-20T06:20:52;17.00;;;3.38;;
59127;SDS011;44912;52.754;5.994;2023-12-20T06:23:17;24.67;;;4.22;;
59127;SDS011;44912;52.754;5.994;2023-12-20T06:25:43;25.20;;;5.13;;
59127;SDS011;44912;52.754;5.994;2023-12-20T06:28:09;16.23;;;3.03;;
59127;SDS011;44912;52.754;5.994;2023-12-20T06:30:35;14.45;;;3.03;;
59127;SDS011;44912;52.754;5.994;2023-12-20T06:33:01;23.98;;;3.50;;
59127;SDS011;44912;52.754;5.994;2023-12-20T06:35:27;19.58;;;4.03;;
59127;SDS011;44912;52.754;5.994;2023-12-20T06:37:53;24.88;;;3.63;;
59127;SDS011;44912;52.754;5.994;2023-12-20T06:40:19;18.13;;;3.53;;
59127;SDS011;44912;52.754;5.994;2023-12-20T06:42:46;15.00;;;3.20;;
59127;SDS011;44912;52.754;5.994;2023-12-20T06:45:11;22.77;;;3.70;;
59127;SDS011;44912;52.754;5.994;2023-12-20T06:47:37;17.83;;;3.65;;
59127;SDS011;44912;52.754;5.994;2023-12-20T06:50:03;20.08;;;3.58;;
59127;SDS011;44912;52.754;5.994;2023-12-20T06:52:29;21.63;;;4.35;;
59127;SDS011;44912;52.754;5.994;2023-12-20T06:54:55;22.20;;;3.60;;
59127;SDS011;44912;52.754;5.994;2023-12-20T06:57:20;19.38;;;4.25;;
59127;SDS011;44912;52.754;5.994;2023-12-20T06:59:46;20.77;;;3.65;;
59127;SDS011;44912;52.754;5.994;2023-12-20T07:02:12;19.83;;;4.00;;
59127;SDS011;44912;52.754;5.994;2023-12-20T07:04:41;19.10;;;3.75;;
59127;SDS011;44912;52.754;5.994;2023-12-20T07:07:07;20.15;;;3.75;;
59127;SDS011;44912;52.754;5.994;2023-12-20T07:09:33;18.52;;;3.35;;
59127;SDS011;44912;52.754;5.994;2023-12-20T07:11:58;20.60;;;3.85;;
59127;SDS011;44912;52.754;5.994;2023-12-20T07:14:24;20.83;;;4.20;;
59127;SDS011;44912;52.754;5.994;2023-12-20T07:16:50;18.65;;;3.92;;
59127;SDS011;44912;52.754;5.994;2023-12-20T07:19:16;20.23;;;3.80;;
59127;SDS011;44912;52.754;5.994;2023-12-20T07:21:41;23.15;;;3.90;;
59127;SDS011;44912;52.754;5.994;2023-12-20T07:24:07;20.23;;;4.07;;
59127;SDS011;44912;52.754;5.994;2023-12-20T07:26:33;18.52;;;3.78;;
59127;SDS011;44912;52.754;5.994;2023-12-20T07:28:59;18.67;;;3.80;;
59127;SDS011;44912;52.754;5.994;2023-12-20T07:31:25;23.45;;;4.65;;
59127;SDS011;44912;52.754;5.994;2023-12-20T07:33:50;22.27;;;4.15;;
59127;SDS011;44912;52.754;5.994;2023-12-20T07:36:16;19.63;;;3.47;;
59127;SDS011;44912;52.754;5.994;2023-12-20T07:38:42;21.67;;;4.10;;
59127;SDS011;44912;52.754;5.994;2023-12-20T07:41:12;19.13;;;3.60;;
59127;SDS011;44912;52.754;5.994;2023-12-20T07:43:38;18.63;;;3.10;;
59127;SDS011;44912;52.754;5.994;2023-12-20T07:46:04;21.23;;;3.95;;
59127;SDS011;44912;52.754;5.994;2023-12-20T07:48:36;23.33;;;5.15;;
59127;SDS011;44912;52.754;5.994;2023-12-20T07:51:03;17.98;;;3.50;;
59127;SDS011;44912;52.754;5.994;2023-12-20T07:53:29;18.05;;;3.63;;
59127;SDS011;44912;52.754;5.994;2023-12-20T07:55:55;23.20;;;4.65;;
59127;SDS011;44912;52.754;5.994;2023-12-20T07:58:20;21.33;;;4.25;;
59127;SDS011;44912;52.754;5.994;2023-12-20T08:00:47;21.95;;;3.88;;
59127;SDS011;44912;52.754;5.994;2023-12-20T08:03:13;21.85;;;3.60;;
59127;SDS011;44912;52.754;5.994;2023-12-20T08:05:38;23.13;;;4.60;;
59127;SDS011;44912;52.754;5.994;2023-12-20T08:08:05;21.23;;;4.00;;
59127;SDS011;44912;52.754;5.994;2023-12-20T08:10:31;23.23;;;4.45;;
59127;SDS011;44912;52.754;5.994;2023-12-20T08:12:57;22.95;;;4.43;;
59127;SDS011;44912;52.754;5.994;2023-12-20T08:15:23;21.55;;;4.47;;
59127;SDS011;44912;52.754;5.994;2023-12-20T08:17:49;23.25;;;3.83;;
59127;SDS011;44912;52.754;5.994;2023-12-20T08:20:16;22.90;;;4.22;;
59127;SDS011;44912;52.754;5.994;2023-12-20T08:22:42;17.27;;;4.75;;
59127;SDS011;44912;52.754;5.994;2023-12-20T08:25:07;19.38;;;4.93;;
59127;SDS011;44912;52.754;5.994;2023-12-20T08:27:33;24.15;;;4.63;;
59127;SDS011;44912;52.754;5.994;2023-12-20T08:30:03;20.85;;;4.28;;
59127;SDS011;44912;52.754;5.994;2023-12-20T08:32:29;22.65;;;3.75;;
59127;SDS011;44912;52.754;5.994;2023-12-20T08:34:55;20.15;;;4.00;;
59127;SDS011;44912;52.754;5.994;2023-12-20T08:37:20;22.08;;;5.35;;
59127;SDS011;44912;52.754;5.994;2023-12-20T08:39:46;22.58;;;4.32;;
59127;SDS011;44912;52.754;5.994;2023-12-20T08:42:11;21.75;;;4.72;;
59127;SDS011;44912;52.754;5.994;2023-12-20T08:44:37;19.15;;;3.80;;
59127;SDS011;44912;52.754;5.994;2023-12-20T08:47:03;18.20;;;3.47;;
59127;SDS011;44912;52.754;5.994;2023-12-20T08:49:28;17.30;;;4.10;;
59127;SDS011;44912;52.754;5.994;2023-12-20T08:51:54;23.58;;;4.45;;
59127;SDS011;44912;52.754;5.994;2023-12-20T08:54:20;22.27;;;3.33;;
59127;SDS011;44912;52.754;5.994;2023-12-20T08:56:45;20.55;;;3.83;;
59127;SDS011;44912;52.754;5.994;2023-12-20T08:59:11;22.20;;;3.50;;
59127;SDS011;44912;52.754;5.994;2023-12-20T09:01:37;22.25;;;3.90;;
59127;SDS011;44912;52.754;5.994;2023-12-20T09:04:03;25.38;;;4.13;;
59127;SDS011;44912;52.754;5.994;2023-12-20T09:06:28;15.77;;;3.40;;
59127;SDS011;44912;52.754;5.994;2023-12-20T09:08:54;21.60;;;3.17;;
59127;SDS011;44912;52.754;5.994;2023-12-20T09:11:20;21.42;;;4.43;;
59127;SDS011;44912;52.754;5.994;2023-12-20T09:13:45;18.00;;;3.70;;
59127;SDS011;44912;52.754;5.994;2023-12-20T09:16:11;19.60;;;4.50;;
59127;SDS011;44912;52.754;5.994;2023-12-20T09:18:38;22.23;;;3.13;;
59127;SDS011;44912;52.754;5.994;2023-12-20T09:21:03;16.90;;;3.45;;
59127;SDS011;44912;52.754;5.994;2023-12-20T09:23:29;18.45;;;4.05;;
59127;SDS011;44912;52.754;5.994;2023-12-20T09:25:55;22.25;;;3.90;;
59127;SDS011;44912;52.754;5.994;2023-12-20T09:28:20;19.95;;;4.53;;
59127;SDS011;44912;52.754;5.994;2023-12-20T09:30:46;23.15;;;4.22;;
59127;SDS011;44912;52.754;5.994;2023-12-20T09:33:12;19.73;;;4.05;;
59127;SDS011;44912;52.754;5.994;2023-12-20T09:35:39;19.02;;;4.15;;
59127;SDS011;44912;52.754;5.994;2023-12-20T09:38:04;19.85;;;3.58;;
59127;SDS011;44912;52.754;5.994;2023-12-20T09:40:30;23.45;;;3.70;;
59127;SDS011;44912;52.754;5.994;2023-12-20T09:43:08;20.23;;;3.30;;
59127;SDS011;44912;52.754;5.994;2023-12-20T09:45:38;17.77;;;3.22;;
59127;SDS011;44912;52.754;5.994;2023-12-20T09:48:05;18.88;;;3.50;;
59127;SDS011;44912;52.754;5.994;2023-12-20T09:50:32;22.60;;;3.88;;
59127;SDS011;44912;52.754;5.994;2023-12-20T09:52:58;22.23;;;3.53;;
59127;SDS011;44912;52.754;5.994;2023-12-20T09:55:26;22.70;;;4.68;;
59127;SDS011;44912;52.754;5.994;2023-12-20T09:57:53;12.38;;;2.53;;
59127;SDS011;44912;52.754;5.994;2023-12-20T10:00:18;7.20;;;2.00;;
59127;SDS011;44912;52.754;5.994;2023-12-20T10:02:45;8.98;;;1.52;;
59127;SDS011;44912;52.754;5.994;2023-12-20T10:07:53;7.70;;;1.83;;
59127;SDS011;44912;52.754;5.994;2023-12-20T10:10:19;11.05;;;1.80;;
59127;SDS011;44912;52.754;5.994;2023-12-20T10:15:32;11.70;;;2.33;;
59127;SDS011;44912;52.754;5.994;2023-12-20T10:18:01;10.75;;;1.55;;
59127;SDS011;44912;52.754;5.994;2023-12-20T10:20:28;14.27;;;1.75;;
59127;SDS011;44912;52.754;5.994;2023-12-20T10:22:54;15.10;;;2.53;;
59127;SDS011;44912;52.754;5.994;2023-12-20T10:25:21;9.52;;;1.50;;
59127;SDS011;44912;52.754;5.994;2023-12-20T10:27:47;13.50;;;1.85;;
59127;SDS011;44912;52.754;5.994;2023-12-20T10:30:14;9.95;;;1.90;;
59127;SDS011;44912;52.754;5.994;2023-12-20T10:32:39;10.48;;;1.75;;
59127;SDS011;44912;52.754;5.994;2023-12-20T10:35:08;13.55;;;1.75;;
59127;SDS011;44912;52.754;5.994;2023-12-20T10:37:35;12.10;;;1.67;;
59127;SDS011;44912;52.754;5.994;2023-12-20T10:40:03;10.30;;;1.98;;
59127;SDS011;44912;52.754;5.994;2023-12-20T10:42:31;16.35;;;2.33;;
59127;SDS011;44912;52.754;5.994;2023-12-20T10:44:59;11.23;;;1.80;;
59127;SDS011;44912;52.754;5.994;2023-12-20T10:47:25;11.02;;;1.70;;
59127;SDS011;44912;52.754;5.994;2023-12-20T10:49:54;14.07;;;1.80;;
59127;SDS011;44912;52.754;5.994;2023-12-20T10:52:22;12.32;;;1.98;;
59127;SDS011;44912;52.754;5.994;2023-12-20T10:54:48;14.20;;;2.33;;
59127;SDS011;44912;52.754;5.994;2023-12-20T10:57:14;12.10;;;1.80;;
59127;SDS011;44912;52.754;5.994;2023-12-20T10:59:42;11.00;;;2.47;;
59127;SDS011;44912;52.754;5.994;2023-12-20T11:02:10;10.95;;;1.80;;
59127;SDS011;44912;52.754;5.994;2023-12-20T11:10:31;12.30;;;2.15;;
59127;SDS011;44912;52.754;5.994;2023-12-20T11:13:13;12.18;;;1.98;;
59127;SDS011;44912;52.754;5.994;2023-12-20T11:15:45;11.30;;;1.80;;
59127;SDS011;44912;52.754;5.994;2023-12-20T11:18:11;12.02;;;1.95;;
59127;SDS011;44912;52.754;5.994;2023-12-20T11:20:37;10.55;;;1.80;;
59127;SDS011;44912;52.754;5.994;2023-12-20T11:23:04;10.32;;;1.67;;
59127;SDS011;44912;52.754;5.994;2023-12-20T11:25:38;11.52;;;1.70;;
59127;SDS011;44912;52.754;5.994;2023-12-20T11:28:16;9.00;;;1.38;;
59127;SDS011;44912;52.754;5.994;2023-12-20T11:30:47;12.60;;;1.75;;
59127;SDS011;44912;52.754;5.994;2023-12-20T11:33:15;10.00;;;2.22;;
59127;SDS011;44912;52.754;5.994;2023-12-20T11:35:42;8.82;;;1.83;;
59127;SDS011;44912;52.754;5.994;2023-12-20T11:38:10;11.55;;;1.70;;
59127;SDS011;44912;52.754;5.994;2023-12-20T11:40:36;11.80;;;1.50;;
59127;SDS011;44912;52.754;5.994;2023-12-20T11:43:02;10.63;;;1.70;;
59127;SDS011;44912;52.754;5.994;2023-12-20T11:45:30;12.20;;;1.60;;
59127;SDS011;44912;52.754;5.994;2023-12-20T11:47:56;10.73;;;1.50;;
59127;SDS011;44912;52.754;5.994;2023-12-20T11:50:22;11.35;;;1.60;;
59127;SDS011;44912;52.754;5.994;2023-12-20T11:52:49;9.50;;;1.63;;
59127;SDS011;44912;52.754;5.994;2023-12-20T11:55:16;15.32;;;2.45;;
59127;SDS011;44912;52.754;5.994;2023-12-20T11:57:42;10.15;;;1.70;;
59127;SDS011;44912;52.754;5.994;2023-12-20T12:00:09;14.07;;;1.48;;
59127;SDS011;44912;52.754;5.994;2023-12-20T12:02:35;10.10;;;1.80;;
59127;SDS011;44912;52.754;5.994;2023-12-20T12:05:00;7.13;;;1.50;;
59127;SDS011;44912;52.754;5.994;2023-12-20T12:07:26;7.35;;;1.35;;
59127;SDS011;44912;52.754;5.994;2023-12-20T12:09:52;9.82;;;1.67;;
59127;SDS011;44912;52.754;5.994;2023-12-20T12:12:17;11.38;;;1.83;;
59127;SDS011;44912;52.754;5.994;2023-12-20T12:14:45;8.85;;;1.30;;
59127;SDS011;44912;52.754;5.994;2023-12-20T12:17:11;13.27;;;1.73;;
59127;SDS011;44912;52.754;5.994;2023-12-20T12:19:38;12.27;;;1.75;;
59127;SDS011;44912;52.754;5.994;2023-12-20T12:22:08;7.93;;;1.38;;
59127;SDS011;44912;52.754;5.994;2023-12-20T12:24:42;10.95;;;1.77;;
59127;SDS011;44912;52.754;5.994;2023-12-20T12:27:09;9.95;;;1.67;;
59127;SDS011;44912;52.754;5.994;2023-12-20T12:29:36;9.85;;;1.45;;
59127;SDS011;44912;52.754;5.994;2023-12-20T12:32:08;11.50;;;1.67;;
59127;SDS011;44912;52.754;5.994;2023-12-20T12:34:35;10.73;;;1.52;;
59127;SDS011;44912;52.754;5.994;2023-12-20T12:37:01;11.52;;;1.70;;
59127;SDS011;44912;52.754;5.994;2023-12-20T12:39:27;13.93;;;1.70;;
59127;SDS011;44912;52.754;5.994;2023-12-20T12:41:54;10.35;;;1.60;;
59127;SDS011;44912;52.754;5.994;2023-12-20T12:44:20;7.63;;;1.20;;
59127;SDS011;44912;52.754;5.994;2023-12-20T12:46:48;10.80;;;1.48;;
59127;SDS011;44912;52.754;5.994;2023-12-20T12:49:19;7.82;;;1.73;;
59127;SDS011;44912;52.754;5.994;2023-12-20T12:51:46;6.72;;;1.27;;
59127;SDS011;44912;52.754;5.994;2023-12-20T12:54:12;9.25;;;1.70;;
59127;SDS011;44912;52.754;5.994;2023-12-20T12:56:38;11.05;;;2.00;;
59127;SDS011;44912;52.754;5.994;2023-12-20T12:59:04;13.27;;;1.83;;
59127;SDS011;44912;52.754;5.994;2023-12-20T13:01:30;8.75;;;1.35;;
59127;SDS011;44912;52.754;5.994;2023-12-20T13:03:56;9.30;;;1.80;;
59127;SDS011;44912;52.754;5.994;2023-12-20T13:06:22;12.13;;;1.95;;
59127;SDS011;44912;52.754;5.994;2023-12-20T13:08:48;12.20;;;1.80;;
59127;SDS011;44912;52.754;5.994;2023-12-20T13:11:14;6.70;;;1.20;;
59127;SDS011;44912;52.754;5.994;2023-12-20T13:13:39;11.43;;;1.40;;
59127;SDS011;44912;52.754;5.994;2023-12-20T13:16:05;12.15;;;1.73;;
59127;SDS011;44912;52.754;5.994;2023-12-20T13:18:31;10.32;;;1.85;;
59127;SDS011;44912;52.754;5.994;2023-12-20T13:20:56;9.10;;;1.50;;
59127;SDS011;44912;52.754;5.994;2023-12-20T13:23:22;7.47;;;1.40;;
59127;SDS011;44912;52.754;5.994;2023-12-20T13:25:47;8.93;;;1.35;;
59127;SDS011;44912;52.754;5.994;2023-12-20T13:28:13;13.43;;;1.80;;
59127;SDS011;44912;52.754;5.994;2023-12-20T13:30:39;15.45;;;2.25;;
59127;SDS011;44912;52.754;5.994;2023-12-20T13:33:05;14.98;;;3.22;;
59127;SDS011;44912;52.754;5.994;2023-12-20T13:35:31;17.25;;;2.42;;
59127;SDS011;44912;52.754;5.994;2023-12-20T13:37:58;18.48;;;3.65;;
59127;SDS011;44912;52.754;5.994;2023-12-20T13:40:24;19.45;;;3.47;;
59127;SDS011;44912;52.754;5.994;2023-12-20T13:42:49;19.88;;;3.28;;
59127;SDS011;44912;52.754;5.994;2023-12-20T13:45:15;14.88;;;2.55;;
59127;SDS011;44912;52.754;5.994;2023-12-20T13:47:41;14.48;;;2.72;;
59127;SDS011;44912;52.754;5.994;2023-12-20T13:50:07;21.83;;;4.65;;
59127;SDS011;44912;52.754;5.994;2023-12-20T13:52:32;21.10;;;3.08;;
59127;SDS011;44912;52.754;5.994;2023-12-20T13:54:58;19.33;;;3.20;;
59127;SDS011;44912;52.754;5.994;2023-12-20T13:57:24;23.30;;;3.20;;
59127;SDS011;44912;52.754;5.994;2023-12-20T13:59:49;17.13;;;2.92;;
59127;SDS011;44912;52.754;5.994;2023-12-20T14:02:15;20.45;;;3.88;;
59127;SDS011;44912;52.754;5.994;2023-12-20T14:04:41;16.50;;;2.97;;
59127;SDS011;44912;52.754;5.994;2023-12-20T14:07:07;18.73;;;3.30;;
59127;SDS011;44912;52.754;5.994;2023-12-20T14:09:33;19.70;;;4.35;;
59127;SDS011;44912;52.754;5.994;2023-12-20T14:11:59;17.23;;;3.63;;
59127;SDS011;44912;52.754;5.994;2023-12-20T14:14:25;19.52;;;3.55;;
59127;SDS011;44912;52.754;5.994;2023-12-20T14:16:51;19.27;;;3.22;;
59127;SDS011;44912;52.754;5.994;2023-12-20T14:19:16;19.88;;;3.28;;
59127;SDS011;44912;52.754;5.994;2023-12-20T14:21:43;18.35;;;3.05;;
59127;SDS011;44912;52.754;5.994;2023-12-20T14:24:10;20.23;;;3.45;;
59127;SDS011;44912;52.754;5.994;2023-12-20T14:26:40;24.13;;;3.92;;
59127;SDS011;44912;52.754;5.994;2023-12-20T14:29:06;15.55;;;3.45;;
59127;SDS011;44912;52.754;5.994;2023-12-20T14:31:32;14.85;;;2.60;;
59127;SDS011;44912;52.754;5.994;2023-12-20T14:33:58;20.58;;;3.60;;
59127;SDS011;44912;52.754;5.994;2023-12-20T14:36:24;17.48;;;3.63;;
59127;SDS011;44912;52.754;5.994;2023-12-20T14:38:50;17.75;;;2.88;;
59127;SDS011;44912;52.754;5.994;2023-12-20T14:41:16;16.17;;;2.90;;